Time;durP1;ratioP1;P1;durP2;ratioP2;P2;SDS_P1;SDS_P2;PMS_P1;PMS_P2;Temp;Humidity;BMP_temperature;BMP_pressure;BME280_temperature;BME280_humidity;BME280_pressure;Samples;Min_cycle;Max_cycle;Signal;HPM_P1;HPM_P2
2023/05/31 00:00:03;;;;;;;7.83;1.97;;;;;;;14.09;63.94;100276.66;12212618;19;20015;-78
2023/05/31 00:04:08;;;;;;;6.50;2.22;;;;;;;14.10;63.84;100268.09;12210801;19;20006;-79
2023/05/31 00:08:10;;;;;;;6.23;2.20;;;;;;;14.12;63.26;100262.28;12189174;19;20011;-78
2023/05/31 00:12:11;;;;;;;8.48;2.75;;;;;;;14.10;63.82;100265.31;12210365;19;20015;-78
2023/05/31 00:16:13;;;;;;;7.53;2.33;;;;;;;14.09;63.31;100258.09;12212687;19;20022;-79
2023/05/31 00:20:35;;;;;;;7.88;1.77;;;;;;;14.09;63.61;100260.03;12189581;19;20789;-78
2023/05/31 00:24:37;;;;;;;8.85;2.40;;;;;;;14.10;62.72;100259.78;12210059;19;20066;-79
2023/05/31 00:28:39;;;;;;;5.47;2.20;;;;;;;14.13;62.80;100256.47;12211310;19;20511;-79
2023/05/31 00:32:41;;;;;;;7.60;2.65;;;;;;;14.17;62.65;100253.19;12186014;19;20006;-79
2023/05/31 00:36:42;;;;;;;7.15;1.90;;;;;;;14.19;62.82;100248.19;12209688;19;20014;-79
2023/05/31 00:40:44;;;;;;;8.95;2.38;;;;;;;14.18;62.60;100254.84;12206598;19;20589;-80
2023/05/31 00:44:46;;;;;;;8.68;2.78;;;;;;;14.13;63.00;100261.19;12187632;19;20010;-78
2023/05/31 00:48:48;;;;;;;8.90;2.47;;;;;;;14.07;63.95;100252.00;12205992;19;20023;-78
2023/05/31 00:52:53;;;;;;;6.82;2.30;;;;;;;14.05;63.89;100259.72;12187842;19;20081;-79
2023/05/31 00:56:54;;;;;;;8.48;3.00;;;;;;;14.01;64.45;100261.34;12210338;19;20023;-80
2023/05/31 01:00:57;;;;;;;7.63;2.50;;;;;;;13.94;65.06;100268.19;12207748;19;20015;-78
2023/05/31 01:04:59;;;;;;;8.00;2.25;;;;;;;13.88;65.43;100275.59;12185947;19;20014;-79
2023/05/31 01:09:07;;;;;;;6.27;2.23;;;;;;;13.81;66.19;100273.03;12207454;19;20034;-78
2023/05/31 01:13:19;;;;;;;7.20;2.03;;;;;;;13.76;67.92;100274.91;12207652;19;20384;-79
2023/05/31 01:17:40;;;;;;;6.55;2.00;;;;;;;13.72;68.23;100282.09;12183250;19;20009;-79
2023/05/31 01:22:14;;;;;;;6.20;2.60;;;;;;;13.64;69.54;100281.44;12204446;19;20015;-79
2023/05/31 01:26:32;;;;;;;10.18;2.63;;;;;;;13.53;69.43;100278.78;12187868;19;20014;-79
2023/05/31 01:30:37;;;;;;;9.73;2.85;;;;;;;13.43;70.45;100271.19;12206036;19;20015;-80
2023/05/31 01:34:38;;;;;;;8.85;3.65;;;;;;;13.34;70.85;100276.34;12205722;19;20066;-79
2023/05/31 01:38:40;;;;;;;5.68;1.83;;;;;;;13.28;70.72;100276.53;12186734;19;20010;-79
2023/05/31 01:42:44;;;;;;;10.32;3.50;;;;;;;13.26;71.40;100268.47;12208367;19;20014;-79
2023/05/31 01:46:50;;;;;;;9.10;2.67;;;;;;;13.23;71.92;100268.97;12188676;19;20458;-80
2023/05/31 01:50:53;;;;;;;8.80;2.72;;;;;;;13.17;72.38;100270.00;12206994;19;20061;-79
2023/05/31 01:54:59;;;;;;;9.23;2.45;;;;;;;13.12;72.42;100273.53;12209136;19;20483;-79
2023/05/31 01:59:01;;;;;;;9.50;2.63;;;;;;;13.09;73.41;100268.53;12184482;19;20348;-80
2023/05/31 02:03:04;;;;;;;;;;;;;;;13.03;74.28;100276.97;12205785;19;20006;-79
2023/05/31 02:07:08;;;;;;;13.23;2.40;;;;;;;12.99;73.97;100279.44;12207166;19;19907;-78
2023/05/31 02:11:10;;;;;;;7.43;2.15;;;;;;;12.94;74.89;100276.59;12184876;19;20014;-79
2023/05/31 02:15:12;;;;;;;9.67;2.47;;;;;;;12.89;75.03;100279.28;12205266;19;20007;-79
2023/05/31 02:19:15;;;;;;;11.73;3.78;;;;;;;12.85;74.89;100284.50;12207541;19;20003;-79
2023/05/31 02:23:17;;;;;;;8.35;2.15;;;;;;;12.80;75.99;100289.09;12185753;19;20017;-79
2023/05/31 02:27:19;;;;;;;9.05;2.35;;;;;;;12.78;76.43;100290.19;12206942;19;20038;-79
2023/05/31 02:31:21;;;;;;;11.50;3.13;;;;;;;12.77;77.11;100282.97;12216319;19;20010;-79
2023/05/31 02:35:23;;;;;;;5.85;2.53;;;;;;;12.75;77.71;100287.91;12197694;19;20006;-79
2023/05/31 02:39:25;;;;;;;7.18;2.88;;;;;;;12.77;78.72;100285.75;12219130;19;20003;-78
2023/05/31 02:43:26;;;;;;;5.70;2.23;;;;;;;12.79;78.53;100285.50;12218394;19;20405;-79
2023/05/31 02:47:29;;;;;;;6.63;2.72;;;;;;;12.84;78.37;100288.34;12196886;19;20010;-78
2023/05/31 02:51:32;;;;;;;9.38;2.80;;;;;;;12.81;79.01;100288.84;12209324;19;20038;-81
2023/05/31 02:55:54;;;;;;;11.13;2.92;;;;;;;12.79;79.87;100285.50;12190239;19;20035;-79
2023/05/31 03:00:17;;;;;;;8.63;2.87;;;;;;;12.75;80.76;100279.63;12217153;19;20010;-80
2023/05/31 03:04:19;;;;;;;7.68;2.65;;;;;;;12.74;80.50;100283.50;12218581;19;20018;-79
2023/05/31 03:08:22;;;;;;;10.30;2.83;;;;;;;12.70;81.88;100293.38;12195495;19;20018;-80
2023/05/31 03:12:25;;;;;;;7.35;2.72;;;;;;;12.64;81.67;100290.78;12215659;19;20083;-79
2023/05/31 03:16:28;;;;;;;7.87;2.60;;;;;;;12.59;81.99;100297.06;12219997;19;20010;-80
2023/05/31 03:20:32;;;;;;;;;;;;;;;12.53;84.31;100303.59;12195976;19;20057;-79
2023/05/31 03:24:35;;;;;;;8.23;2.85;;;;;;;12.49;83.94;100303.28;12216280;19;19914;-79
2023/05/31 03:28:37;;;;;;;10.10;2.72;;;;;;;12.46;84.22;100303.78;12216479;19;20011;-79
2023/05/31 03:32:39;;;;;;;10.88;3.20;;;;;;;12.46;85.52;100305.69;12192116;19;20026;-79
2023/05/31 03:36:41;;;;;;;7.20;2.90;;;;;;;12.41;86.13;100306.44;12215997;19;20011;-79
2023/05/31 03:41:02;;;;;;;9.32;2.72;;;;;;;12.41;88.56;100317.50;12191539;19;20025;-79
2023/05/31 03:45:04;;;;;;;12.40;2.97;;;;;;;12.42;86.59;100310.03;12216147;19;20006;-79
2023/05/31 03:49:08;;;;;;;10.68;3.75;;;;;;;12.42;88.39;100315.56;12214980;19;20126;-79
2023/05/31 03:53:10;;;;;;;9.48;3.50;;;;;;;12.46;87.66;100317.59;12195939;19;20014;-79
2023/05/31 03:57:12;;;;;;;7.83;2.63;;;;;;;12.48;87.95;100318.16;12217613;19;20078;-79
2023/05/31 04:01:14;;;;;;;10.90;3.00;;;;;;;12.49;88.64;100317.09;12214103;19;20018;-79
2023/05/31 04:05:16;;;;;;;10.00;2.80;;;;;;;12.52;89.02;100315.72;12193091;19;20035;-79
2023/05/31 04:09:18;;;;;;;6.87;3.33;;;;;;;12.51;90.33;100308.53;12213549;19;20456;-79
2023/05/31 04:13:20;;;;;;;9.73;3.97;;;;;;;12.49;90.45;100324.53;12215471;19;20007;-79
2023/05/31 04:17:22;;;;;;;12.10;3.40;;;;;;;12.46;90.89;100320.38;12192265;19;20095;-79
2023/05/31 04:21:23;;;;;;;11.32;3.70;;;;;;;12.43;91.92;100329.16;12233068;19;20007;-78
2023/05/31 04:25:27;;;;;;;10.18;3.22;;;;;;;12.39;93.88;100338.19;12231881;19;20010;-78
2023/05/31 04:29:29;;;;;;;11.38;3.60;;;;;;;12.35;94.88;100339.78;12197811;19;20605;-79
2023/05/31 04:33:33;;;;;;;7.45;3.28;;;;;;;12.31;95.39;100334.75;12214028;19;20367;-78
2023/05/31 04:37:36;;;;;;;11.90;3.53;;;;;;;12.25;99.11;100346.75;12215286;19;20021;-79
2023/05/31 04:41:40;;;;;;;10.60;3.60;;;;;;;12.28;97.18;100345.44;12191510;19;20430;-79
2023/05/31 04:45:42;;;;;;;10.23;3.50;;;;;;;12.26;96.76;100350.41;12212672;19;20014;-78
2023/05/31 04:49:46;;;;;;;8.00;3.20;;;;;;;12.23;98.49;100348.97;12213050;19;20464;-79
2023/05/31 04:53:57;;;;;;;10.32;3.15;;;;;;;12.25;98.89;100348.69;12187601;19;20018;-80
2023/05/31 04:57:59;;;;;;;6.20;3.50;;;;;;;12.29;98.35;100356.25;12211784;19;20014;-79
2023/05/31 05:02:02;;;;;;;8.77;3.47;;;;;;;12.29;99.84;100358.19;12187667;19;20679;-79
2023/05/31 05:06:15;;;;;;;7.40;2.83;;;;;;;12.30;100.00;100349.63;12211001;19;20014;-79
2023/05/31 05:10:18;;;;;;;8.27;2.95;;;;;;;12.36;100.00;100352.50;12209722;19;20006;-79
2023/05/31 05:14:20;;;;;;;8.90;4.13;;;;;;;12.39;100.00;100358.34;12188305;19;20094;-79
2023/05/31 05:18:22;;;;;;;7.82;3.50;;;;;;;12.40;100.00;100362.78;12208795;19;20046;-78
2023/05/31 05:22:23;;;;;;;8.85;3.42;;;;;;;12.43;100.00;100359.56;12209524;19;20035;-78
2023/05/31 05:26:27;;;;;;;7.78;3.17;;;;;;;12.50;100.00;100362.16;12188256;19;20108;-78
2023/05/31 05:30:30;;;;;;;9.93;3.33;;;;;;;12.56;100.00;100352.88;12206551;19;20019;-78
2023/05/31 05:34:33;;;;;;;10.48;3.70;;;;;;;12.60;100.00;100348.50;12207909;19;20015;-78
2023/05/31 05:38:35;;;;;;;7.67;3.40;;;;;;;12.73;100.00;100361.16;12187496;19;20010;-79
2023/05/31 05:42:37;;;;;;;10.32;3.78;;;;;;;12.83;100.00;100368.81;12203747;19;20979;-78
2023/05/31 05:46:39;;;;;;;8.93;3.40;;;;;;;12.94;100.00;100371.50;12198993;19;20021;-79
2023/05/31 05:50:41;;;;;;;10.53;3.77;;;;;;;13.06;100.00;100360.34;12154369;19;20039;-79
2023/05/31 05:54:44;;;;;;;6.22;2.75;;;;;;;13.16;100.00;100348.56;12210811;19;20019;-79
2023/05/31 05:58:46;;;;;;;10.38;3.28;;;;;;;13.30;100.00;100360.16;12211092;19;20010;-79
2023/05/31 06:02:48;;;;;;;10.77;3.08;;;;;;;13.47;99.12;100360.94;12191044;19;20018;-78
2023/05/31 06:06:51;;;;;;;6.93;3.53;;;;;;;13.66;97.58;100361.50;12227735;19;20132;-78
2023/05/31 06:10:52;;;;;;;10.77;2.88;;;;;;;13.87;94.64;100352.34;12199816;19;20018;-79
2023/05/31 06:14:56;;;;;;;9.35;3.00;;;;;;;14.14;92.04;100374.53;12274193;19;20011;-79
2023/05/31 06:18:58;;;;;;;9.50;2.63;;;;;;;14.40;89.43;100366.50;12230654;19;20017;-79
2023/05/31 06:23:03;;;;;;;9.65;3.38;;;;;;;14.66;88.31;100375.94;12204454;19;20453;-78
2023/05/31 06:27:06;;;;;;;7.05;2.78;;;;;;;14.93;86.13;100373.13;12224093;19;20017;-79
2023/05/31 06:31:13;;;;;;;9.02;2.53;;;;;;;15.19;83.07;100376.91;12221596;19;20006;-79
2023/05/31 06:35:15;;;;;;;4.67;2.50;;;;;;;15.45;80.61;100371.56;12200555;19;20014;-80
2023/05/31 06:39:18;;;;;;;7.32;2.13;;;;;;;15.74;77.47;100372.03;12224052;19;20641;-80
2023/05/31 06:43:20;;;;;;;4.90;2.00;;;;;;;16.05;73.55;100372.16;12222537;19;20045;-80
2023/05/31 06:47:41;;;;;;;5.88;2.20;;;;;;;16.37;69.36;100372.78;12203057;19;20039;-80
2023/05/31 06:51:49;;;;;;;5.40;2.20;;;;;;;16.61;68.31;100378.69;12222836;19;20010;-79
2023/05/31 06:56:29;;;;;;;8.30;2.13;;;;;;;16.90;66.84;100372.63;12203511;19;20397;-80
2023/05/31 07:00:31;;;;;;;7.78;2.63;;;;;;;17.15;64.62;100373.72;12219503;19;20010;-80
2023/05/31 07:04:33;;;;;;;9.00;2.28;;;;;;;17.31;62.44;100387.34;12223548;19;20010;-79
2023/05/31 07:08:36;;;;;;;6.32;2.10;;;;;;;17.51;61.30;100374.47;12200892;19;20017;-80
2023/05/31 07:13:17;;;;;;;6.78;3.13;;;;;;;17.81;60.74;100375.53;12222275;19;20361;-81
2023/05/31 07:17:23;;;;;;;7.03;2.17;;;;;;;18.09;58.12;100369.31;12200334;19;20028;-80
2023/05/31 07:21:26;;;;;;;7.95;2.35;;;;;;;18.40;58.09;100357.97;12221329;19;20022;-79
2023/05/31 07:25:28;;;;;;;4.88;2.25;;;;;;;18.75;55.88;100353.28;12222634;19;20023;-80
2023/05/31 07:29:30;;;;;;;11.90;2.53;;;;;;;18.96;53.47;100353.97;12199916;19;20014;-81
2023/05/31 07:33:32;;;;;;;6.30;2.43;;;;;;;19.22;55.00;100357.34;12219797;19;20007;-79
2023/05/31 07:37:34;;;;;;;6.07;2.13;;;;;;;19.35;53.44;100346.31;12221226;19;20039;-80
2023/05/31 07:41:36;;;;;;;8.43;2.30;;;;;;;19.55;53.48;100344.44;12194033;19;20275;-81
2023/05/31 07:45:40;;;;;;;7.47;2.03;;;;;;;19.62;51.29;100344.91;12219331;19;20002;-80
2023/05/31 07:49:44;;;;;;;8.05;2.42;;;;;;;19.86;51.25;100335.69;12216592;19;20122;-80
2023/05/31 07:53:47;;;;;;;5.03;2.25;;;;;;;20.09;50.60;100339.59;12195746;19;20081;-80
2023/05/31 07:57:49;;;;;;;6.85;2.28;;;;;;;20.36;49.83;100328.56;12218564;19;20003;-79
2023/05/31 08:01:51;;;;;;;6.10;2.07;;;;;;;20.62;47.92;100334.66;12192569;19;20458;-80
2023/05/31 08:05:57;;;;;;;8.70;2.50;;;;;;;20.87;47.89;100321.34;12217576;19;20032;-81
2023/05/31 08:09:59;;;;;;;5.73;2.83;;;;;;;21.07;47.71;100320.16;12216487;19;20901;-79
2023/05/31 08:14:04;;;;;;;9.47;2.50;;;;;;;21.29;44.62;100314.69;12196374;19;20079;-83
2023/05/31 08:18:06;;;;;;;6.82;2.38;;;;;;;21.38;43.60;100298.84;12216713;19;20032;-81
2023/05/31 08:22:08;;;;;;;6.70;2.57;;;;;;;21.57;43.71;100297.94;12215141;19;20027;-82
2023/05/31 08:26:11;;;;;;;5.65;2.33;;;;;;;21.80;41.69;100310.06;12195931;19;20261;-81
2023/05/31 08:30:13;;;;;;;4.33;2.03;;;;;;;21.86;41.02;100297.59;12211517;19;20383;-80
2023/05/31 08:34:15;;;;;;;7.75;2.15;;;;;;;22.07;40.29;100306.41;12215490;19;20094;-81
2023/05/31 08:38:19;;;;;;;5.00;2.42;;;;;;;22.40;39.31;100292.19;12194533;19;20058;-80
2023/05/31 08:42:27;;;;;;;7.22;1.95;;;;;;;22.59;37.85;100289.22;12214137;19;20097;-82
2023/05/31 08:46:32;;;;;;;5.65;2.05;;;;;;;22.73;36.69;100293.63;12215075;19;20006;-80
2023/05/31 08:50:36;;;;;;;3.72;1.52;;;;;;;22.88;36.80;100294.41;12194131;19;20007;-80
2023/05/31 08:54:39;;;;;;;4.85;1.58;;;;;;;23.17;36.83;100291.97;12215301;19;20027;-81
2023/05/31 08:58:42;;;;;;;5.93;2.00;;;;;;;23.25;35.21;100298.75;12214978;19;20021;-80
2023/05/31 09:02:46;;;;;;;10.25;2.22;;;;;;;23.32;34.35;100299.16;12186856;19;20078;-80
2023/05/31 09:06:50;;;;;;;4.93;2.30;;;;;;;23.32;33.96;100295.47;12216057;19;20021;-84
2023/05/31 09:10:52;;;;;;;4.75;1.60;;;;;;;23.28;33.94;100286.88;12191294;19;20041;-81
2023/05/31 09:14:55;;;;;;;8.85;2.28;;;;;;;23.51;34.30;100290.44;12214800;19;20066;-84
2023/05/31 09:19:02;;;;;;;4.82;2.00;;;;;;;23.77;33.61;100279.31;12216051;19;20010;-81
2023/05/31 09:23:05;;;;;;;7.90;3.25;;;;;;;23.97;33.54;100283.47;12191252;19;20354;-81
2023/05/31 09:27:10;;;;;;;5.32;1.50;;;;;;;24.23;32.19;100277.06;12216149;19;20028;-81
2023/05/31 09:31:15;;;;;;;5.88;2.17;;;;;;;24.34;31.75;100276.41;12217623;19;20492;-83
2023/05/31 09:35:17;;;;;;;8.57;2.45;;;;;;;24.54;30.99;100277.78;12196936;19;20006;-82
2023/05/31 09:39:20;;;;;;;;;;;;;;;24.74;31.16;100261.31;12211687;19;20015;-83
2023/05/31 09:43:23;;;;;;;5.43;1.85;;;;;;;24.87;30.97;100254.69;12219102;19;19907;-85
2023/05/31 09:47:25;;;;;;;3.97;2.05;;;;;;;24.55;31.70;100258.88;12198592;19;20010;-83
2023/05/31 09:51:28;;;;;;;;;;;;;;;24.63;31.57;100260.00;12218730;19;20010;-83
2023/05/31 09:55:40;;;;;;;6.82;1.80;;;;;;;24.88;30.97;100250.69;12221895;19;19915;-81
2023/05/31 09:59:45;;;;;;;5.63;1.85;;;;;;;25.05;30.96;100249.81;12208808;19;20006;-82
2023/05/31 10:03:50;;;;;;;4.55;1.85;;;;;;;25.09;29.95;100252.78;12219078;19;20031;-82
2023/05/31 10:07:52;;;;;;;5.10;1.98;;;;;;;24.85;29.93;100245.72;12202393;19;20030;-82
2023/05/31 10:11:57;;;;;;;5.22;2.00;;;;;;;25.00;29.31;100247.19;12216886;19;20011;-82
2023/05/31 10:16:07;;;;;;;6.07;1.60;;;;;;;25.15;29.59;100243.84;12220356;19;20749;-83
2023/05/31 10:20:14;;;;;;;3.50;1.42;;;;;;;25.43;28.95;100243.38;12197381;19;20010;-82
2023/05/31 10:24:40;;;;;;;6.05;1.77;;;;;;;25.72;29.16;100250.22;12234232;19;19998;-80
2023/05/31 10:29:13;;;;;;;4.50;1.40;;;;;;;25.60;28.26;100231.19;12202309;19;20488;-82
2023/05/31 10:33:17;;;;;;;8.30;1.85;;;;;;;25.67;27.70;100237.09;12212375;19;20018;-83
2023/05/31 10:37:21;;;;;;;4.25;1.70;;;;;;;25.91;27.99;100234.50;12216615;19;20362;-82
2023/05/31 10:41:28;;;;;;;4.88;1.67;;;;;;;26.04;27.82;100223.28;12196747;19;20009;-82
2023/05/31 10:45:37;;;;;;;4.50;1.80;;;;;;;26.35;28.31;100223.69;12214439;19;20028;-81
2023/05/31 10:49:42;;;;;;;4.10;1.70;;;;;;;26.36;26.08;100211.22;12219919;19;20018;-84
2023/05/31 10:53:46;;;;;;;4.00;1.50;;;;;;;26.58;25.96;100210.03;12207405;19;20087;-83
2023/05/31 10:57:50;;;;;;;4.60;1.58;;;;;;;26.79;26.68;100214.81;12232798;19;20010;-85
2023/05/31 11:01:58;;;;;;;3.95;1.80;;;;;;;26.89;26.92;100196.56;12206757;19;20006;-84
2023/05/31 11:06:05;;;;;;;4.10;1.83;;;;;;;26.91;26.79;100197.03;12225912;19;20014;-83
2023/05/31 11:10:10;;;;;;;4.43;2.00;;;;;;;27.08;26.58;100193.19;12229831;19;20029;-85
2023/05/31 11:14:37;;;;;;;6.95;2.00;;;;;;;27.32;26.95;100195.22;12200671;19;20010;-82
2023/05/31 11:19:08;;;;;;;4.20;1.70;;;;;;;27.52;26.30;100185.81;12253915;19;20104;-84
2023/05/31 11:23:16;;;;;;;5.33;1.60;;;;;;;27.63;24.78;100183.28;12229099;19;20037;-82
2023/05/31 11:27:33;;;;;;;2.92;1.60;;;;;;;28.07;25.33;100191.97;12240367;19;20010;-84
2023/05/31 11:31:57;;;;;;;5.55;1.88;;;;;;;28.16;24.30;100190.63;12241320;19;20018;-84
2023/05/31 11:36:02;;;;;;;7.03;1.83;;;;;;;28.04;24.55;100184.19;12219694;19;20099;-84
2023/05/31 11:40:07;;;;;;;3.90;1.60;;;;;;;28.16;23.87;100169.97;12240174;19;20010;-82
2023/05/31 11:44:16;;;;;;;4.55;1.67;;;;;;;28.33;23.66;100174.53;12227364;19;20021;-83
2023/05/31 11:48:29;;;;;;;6.03;2.28;;;;;;;28.44;24.52;100163.50;12245743;19;20015;-83
2023/05/31 11:52:32;;;;;;;6.47;2.00;;;;;;;28.65;24.41;100168.97;12232770;19;20010;-81
2023/05/31 11:56:38;;;;;;;4.47;1.73;;;;;;;28.75;23.59;100159.91;12208717;19;20006;-83
2023/05/31 12:00:45;;;;;;;6.57;1.85;;;;;;;28.88;23.49;100155.78;12221372;19;20014;-83
2023/05/31 12:04:47;;;;;;;3.70;1.70;;;;;;;28.79;23.33;100158.84;12215228;19;20021;-83
2023/05/31 12:08:55;;;;;;;9.80;1.75;;;;;;;28.86;23.57;100152.53;12234892;19;20007;-81
2023/05/31 12:12:59;;;;;;;6.88;3.47;;;;;;;29.10;23.34;100147.88;12228683;19;20006;-81
2023/05/31 12:17:05;;;;;;;5.57;2.38;;;;;;;29.71;22.46;100144.47;12209297;19;20023;-83
2023/05/31 12:21:11;;;;;;;5.70;1.75;;;;;;;30.30;22.06;100139.69;12237382;19;20007;-83
2023/05/31 12:25:13;;;;;;;5.50;1.80;;;;;;;31.46;20.93;100133.66;12234845;19;20015;-83
2023/05/31 12:29:15;;;;;;;;;;;;;;;32.48;20.26;100143.16;12218152;19;20022;-84
2023/05/31 12:33:19;;;;;;;4.70;1.88;;;;;;;33.33;18.38;100128.06;12233122;19;19918;-81
2023/05/31 12:37:24;;;;;;;4.38;1.90;;;;;;;33.84;17.77;100123.53;12230461;19;20021;-83
2023/05/31 12:41:29;;;;;;;3.40;2.00;;;;;;;34.63;17.69;100116.09;12204935;19;20293;-83
2023/05/31 12:45:31;;;;;;;4.15;2.35;;;;;;;35.21;16.51;100103.44;12225994;19;20018;-81
2023/05/31 12:49:36;;;;;;;6.53;1.90;;;;;;;35.67;16.30;100104.63;12224805;19;20006;-82
2023/05/31 12:53:40;;;;;;;3.65;1.77;;;;;;;35.96;15.92;100100.38;12201040;19;20030;-83
2023/05/31 12:57:45;;;;;;;3.70;1.85;;;;;;;36.49;15.79;100098.50;12220826;19;20041;-83
2023/05/31 13:01:47;;;;;;;4.10;2.10;;;;;;;36.92;15.15;100101.09;12212671;19;20010;-82
2023/05/31 13:05:51;;;;;;;7.68;1.90;;;;;;;37.27;15.24;100093.41;12216645;19;20010;-81
2023/05/31 13:09:53;;;;;;;5.32;2.10;;;;;;;37.84;15.50;100099.38;12219573;19;20020;-83
2023/05/31 13:13:55;;;;;;;7.45;2.28;;;;;;;37.69;13.90;100083.56;12197600;19;20006;-80
2023/05/31 13:17:57;;;;;;;5.18;1.77;;;;;;;38.23;14.08;100065.63;12224269;19;20011;-83
2023/05/31 13:22:00;;;;;;;4.30;1.88;;;;;;;38.30;13.65;100068.38;12218655;19;20011;-83
2023/05/31 13:26:02;;;;;;;2.78;2.05;;;;;;;38.69;13.96;100075.63;12207741;19;20002;-82
2023/05/31 13:30:06;;;;;;;2.97;1.70;;;;;;;39.17;13.61;100063.69;12229768;19;20009;-83
2023/05/31 13:34:19;;;;;;;2.47;1.70;;;;;;;39.26;14.05;100071.75;12228376;19;20014;-81
2023/05/31 13:38:21;;;;;;;2.22;1.50;;;;;;;39.25;13.49;100067.25;12204261;19;20002;-82
2023/05/31 13:42:23;;;;;;;3.08;2.05;;;;;;;39.60;13.28;100064.97;12224210;19;20013;-82
2023/05/31 13:46:26;;;;;;;6.38;2.25;;;;;;;39.82;13.19;100045.19;12220793;19;20070;-82
2023/05/31 13:50:29;;;;;;;4.63;1.98;;;;;;;40.66;12.96;100045.75;12203089;19;20010;-82
2023/05/31 13:54:31;;;;;;;2.63;1.52;;;;;;;40.87;12.32;100039.44;12223365;19;20003;-83
2023/05/31 13:58:33;;;;;;;3.95;1.75;;;;;;;41.44;12.19;100040.00;12226776;19;20753;-82
2023/05/31 14:02:35;;;;;;;3.35;1.50;;;;;;;40.38;11.99;100018.38;12196538;19;20080;-81
2023/05/31 14:06:37;;;;;;;2.83;1.45;;;;;;;41.36;12.54;100022.03;12213080;19;20007;-83
2023/05/31 14:10:40;;;;;;;5.25;1.95;;;;;;;41.72;11.52;100020.22;12209630;19;20018;-83
2023/05/31 14:14:44;;;;;;;4.25;2.00;;;;;;;42.02;11.27;100011.03;12194853;19;20477;-79
2023/05/31 14:18:47;;;;;;;2.88;1.73;;;;;;;42.19;11.22;100008.03;12218129;19;20016;-78
2023/05/31 14:22:50;;;;;;;4.45;1.70;;;;;;;42.35;11.08;100002.13;12198506;19;20025;-79
2023/05/31 14:26:54;;;;;;;2.88;1.60;;;;;;;42.24;11.54;99998.75;12227369;19;20006;-79
2023/05/31 14:30:58;;;;;;;3.13;1.85;;;;;;;42.75;11.59;99993.78;12227069;19;20011;-83
2023/05/31 14:35:00;;;;;;;3.30;1.90;;;;;;;43.36;11.23;99994.50;12213125;19;20031;-82
2023/05/31 14:39:04;;;;;;;4.93;1.77;;;;;;;43.53;10.24;99989.34;12236347;19;20492;-80
2023/05/31 14:43:07;;;;;;;5.32;2.10;;;;;;;42.51;10.77;99989.59;12237315;19;20014;-81
2023/05/31 14:47:10;;;;;;;3.15;1.58;;;;;;;41.19;11.63;99989.44;12220283;19;20058;-80
2023/05/31 14:51:12;;;;;;;6.80;2.10;;;;;;;41.32;12.04;99986.63;12249399;19;20022;-81
2023/05/31 14:55:14;;;;;;;3.70;1.60;;;;;;;41.65;11.33;99981.53;12240162;19;20014;-81
2023/05/31 14:59:16;;;;;;;4.20;1.70;;;;;;;39.69;12.55;99987.34;12218202;19;20015;-81
2023/05/31 15:03:18;;;;;;;5.10;1.88;;;;;;;39.40;13.11;99981.34;12233077;19;20423;-80
2023/05/31 15:07:20;;;;;;;3.80;1.80;;;;;;;40.67;12.30;99984.66;12234630;19;20023;-83
2023/05/31 15:11:22;;;;;;;3.30;1.80;;;;;;;41.04;12.50;99968.00;12208256;19;20006;-83
2023/05/31 15:15:24;;;;;;;6.32;2.15;;;;;;;42.02;12.24;99976.28;12233344;19;20005;-83
2023/05/31 15:19:26;;;;;;;4.72;1.90;;;;;;;41.48;12.36;99971.31;12232493;19;20805;-81
2023/05/31 15:23:28;;;;;;;4.93;1.90;;;;;;;38.37;13.45;99972.47;12207315;19;20071;-82
2023/05/31 15:27:30;;;;;;;6.03;1.80;;;;;;;35.55;15.31;99968.31;12219494;19;20398;-80
2023/05/31 15:31:32;;;;;;;3.97;2.30;;;;;;;33.65;17.09;99970.34;12228786;19;20014;-83
2023/05/31 15:35:34;;;;;;;4.97;1.73;;;;;;;32.01;18.10;99967.94;12215642;19;20031;-82
2023/05/31 15:39:38;;;;;;;4.55;2.00;;;;;;;31.64;18.11;99963.00;12232405;19;20007;-81
2023/05/31 15:43:40;;;;;;;4.15;1.83;;;;;;;30.53;18.95;99954.91;12234020;19;20464;-80
2023/05/31 15:47:42;;;;;;;5.10;2.03;;;;;;;29.91;19.62;99955.81;12209823;19;20094;-82
2023/05/31 15:51:44;;;;;;;3.55;1.70;;;;;;;29.51;19.82;99950.56;12255171;19;20015;-81
2023/05/31 15:55:47;;;;;;;;;;;;;;;28.71;20.61;99949.19;12260000;19;20091;-81
2023/05/31 15:59:48;;;;;;;;;;;;;;;28.00;21.36;99943.34;12224476;19;19918;-81
2023/05/31 16:03:51;;;;;;;4.47;1.60;;;;;;;27.68;22.20;99940.41;12231896;19;20454;-82
2023/05/31 16:08:00;;;;;;;4.63;1.70;;;;;;;27.41;22.68;99938.44;12209434;19;20009;-81
2023/05/31 16:12:05;;;;;;;3.35;1.60;;;;;;;27.49;22.68;99943.13;12228259;19;20366;-82
2023/05/31 16:16:09;;;;;;;3.45;1.88;;;;;;;27.38;22.54;99936.31;12237860;19;20014;-81
2023/05/31 16:20:11;;;;;;;3.33;1.30;;;;;;;27.23;22.90;99941.56;12210051;19;20422;-80
2023/05/31 16:24:14;;;;;;;4.20;1.48;;;;;;;27.15;22.89;99939.69;12234164;19;20015;-83
2023/05/31 16:28:15;;;;;;;2.83;1.30;;;;;;;26.98;22.95;99931.47;12234595;19;20014;-83
2023/05/31 16:32:17;;;;;;;5.75;1.70;;;;;;;26.85;23.31;99933.50;12207780;19;20740;-81
2023/05/31 16:36:19;;;;;;;3.38;1.70;;;;;;;26.79;23.63;99921.59;12236413;19;20013;-81
2023/05/31 16:40:22;;;;;;;10.73;1.60;;;;;;;26.68;23.84;99926.13;12233764;19;20423;-82
2023/05/31 16:44:24;;;;;;;2.72;1.60;;;;;;;26.61;23.76;99919.41;12210521;19;20074;-81
2023/05/31 16:48:27;;;;;;;3.20;1.52;;;;;;;26.48;24.08;99922.22;12228894;19;20348;-82
2023/05/31 16:52:30;;;;;;;3.00;1.40;;;;;;;26.36;24.25;99920.22;12226244;19;20010;-81
2023/05/31 16:56:31;;;;;;;2.78;1.33;;;;;;;26.22;24.74;99919.75;12205896;19;20014;-81
2023/05/31 17:00:35;;;;;;;4.20;1.48;;;;;;;26.13;24.87;99916.22;12222760;19;20003;-82
2023/05/31 17:04:37;;;;;;;3.45;1.30;;;;;;;26.08;24.82;99914.44;12226418;19;20011;-81
2023/05/31 17:08:39;;;;;;;3.38;1.50;;;;;;;26.06;24.74;99913.16;12202348;19;20027;-82
2023/05/31 17:12:42;;;;;;;4.82;2.00;;;;;;;26.13;25.29;99913.41;12217763;19;20010;-78
2023/05/31 17:16:47;;;;;;;4.13;1.70;;;;;;;26.03;25.42;99905.41;12219692;19;20035;-79
2023/05/31 17:20:50;;;;;;;4.75;1.60;;;;;;;26.01;24.98;99916.22;12218077;19;20003;-82
2023/05/31 17:24:52;;;;;;;7.95;1.80;;;;;;;25.96;25.23;99907.97;12218124;19;20019;-82
2023/05/31 17:28:54;;;;;;;3.65;1.17;;;;;;;25.89;25.81;99900.06;12195074;19;20010;-83
2023/05/31 17:32:56;;;;;;;10.25;1.70;;;;;;;25.86;25.53;99907.25;12217836;19;20027;-82
2023/05/31 17:36:58;;;;;;;3.50;1.27;;;;;;;25.84;25.88;99903.94;12220692;19;20011;-86
2023/05/31 17:41:00;;;;;;;3.58;1.70;;;;;;;25.74;26.04;99903.56;12198517;19;20610;-84
2023/05/31 17:45:02;;;;;;;5.72;1.70;;;;;;;25.71;26.37;99904.25;12223231;19;20031;-81
2023/05/31 17:49:04;;;;;;;;;;;;;;;25.60;26.87;99913.16;12226309;19;20014;-82
2023/05/31 17:53:06;;;;;;;5.10;1.50;;;;;;;25.51;26.99;99914.41;12195452;19;24799;-83
2023/05/31 17:57:08;;;;;;;5.65;1.85;;;;;;;25.43;27.65;99907.69;12224914;19;20398;-83
2023/05/31 18:01:10;;;;;;;4.15;1.52;;;;;;;25.31;29.21;99911.28;12231349;19;20027;-83
2023/05/31 18:05:17;;;;;;;4.90;2.00;;;;;;;25.09;30.52;99906.81;12210922;19;20014;-82
2023/05/31 18:09:21;;;;;;;10.85;2.17;;;;;;;24.82;31.20;99913.84;12232253;19;20467;-83
2023/05/31 18:13:29;;;;;;;3.25;1.77;;;;;;;24.58;31.44;99911.69;12228010;19;20014;-83
2023/05/31 18:17:32;;;;;;;4.03;1.83;;;;;;;24.53;31.93;99914.69;12213110;19;20018;-83
2023/05/31 18:21:34;;;;;;;3.97;1.92;;;;;;;24.44;33.00;99920.38;12235492;19;20053;-82
2023/05/31 18:25:36;;;;;;;4.97;1.65;;;;;;;24.26;33.65;99921.59;12236650;19;20018;-83
2023/05/31 18:29:38;;;;;;;3.20;1.80;;;;;;;24.04;34.43;99915.09;12209501;19;20013;-83
2023/05/31 18:33:41;;;;;;;;;;;;;;;23.83;35.37;99923.44;12232778;19;20027;-84
2023/05/31 18:38:19;;;;;;;3.08;1.77;;;;;;;23.58;35.75;99922.31;12232813;19;19909;-83
2023/05/31 18:42:41;;;;;;;3.10;1.60;;;;;;;23.32;36.48;99915.91;12233482;19;20066;-83
2023/05/31 18:51:19;;;;;;;6.78;1.85;;;;;;;22.90;37.12;99918.38;12238127;19;19915;-83